Filer, Idaho
Current Conditions -  °F | °C
As of 6:53 AM on Friday 24 Oct 2014 (Local Time) from KTWF Reporting Station
Broken Clouds Broken Clouds  
Wind Chill: 47°   Ceiling: 10000
Heat Index: 47°   Visibility: 10mi
Dew Point: 39°   Wind: 0mph
Humidity: 74%   Direction: NA
Pressure: 30.11"   Gusts: NA
Location:  42.57°N, 114.61°W
Report Text: KTWF 241253Z 00000KT 10SM BKN100 08/04 A3011 RMK AO2 SLP170 T00830039
Loading
Personal Weather Stations






























Interactive Weather Map
Tropical Storm Tracking
New forecast layout! Learn more

10-Day Weather Forecast

Advertisements
Track Severe Weather on mobile